Time;durP1;ratioP1;P1;durP2;ratioP2;P2;SDS_P1;SDS_P2;PMS_P1;PMS_P2;Temp;Humidity;BMP_temperature;BMP_pressure;BME280_temperature;BME280_humidity;BME280_pressure;Samples;Min_cycle;Max_cycle;Signal;HPM_P1;HPM_P2
2022/12/02 00:01:21;;;;;;;8.23;5.70;;;;;;;6.37;95.85;100167.84;5034324;28;20108;-36
2022/12/02 00:03:47;;;;;;;7.90;5.95;;;;;;;6.18;95.67;100147.84;5034545;28;20029;-36
2022/12/02 00:06:28;;;;;;;8.32;6.25;;;;;;;6.17;97.29;100174.44;5034443;28;20025;-36
2022/12/02 00:08:59;;;;;;;10.90;6.60;;;;;;;6.19;98.33;100164.56;5034419;28;20076;-36
2022/12/02 00:11:27;;;;;;;10.98;7.30;;;;;;;6.35;98.00;100167.19;5034361;28;20021;-36
2022/12/02 00:13:55;;;;;;;12.40;7.93;;;;;;;6.44;96.95;100160.91;5034495;28;20401;-36
2022/12/02 00:16:23;;;;;;;13.90;8.50;;;;;;;6.35;96.67;100163.72;5034198;28;20382;-36
2022/12/02 00:18:50;;;;;;;15.10;8.90;;;;;;;6.43;96.61;100166.38;5034023;28;20068;-36
2022/12/02 00:21:15;;;;;;;13.70;9.15;;;;;;;6.42;95.88;100170.00;5034004;28;20037;-36
2022/12/02 00:23:41;;;;;;;15.05;9.52;;;;;;;6.32;96.30;100170.19;5034034;28;20029;-36
2022/12/02 00:26:06;;;;;;;15.75;9.98;;;;;;;6.37;97.42;100167.84;5033916;28;20529;-36
2022/12/02 00:28:32;;;;;;;16.90;10.50;;;;;;;6.49;97.31;100178.09;5033974;28;20037;-37
2022/12/02 00:30:57;;;;;;;14.98;10.20;;;;;;;6.42;97.41;100173.47;5034087;28;20029;-37
2022/12/02 00:33:23;;;;;;;14.60;9.52;;;;;;;6.43;95.45;100172.47;5033917;28;20021;-44
2022/12/02 00:35:48;;;;;;;15.88;10.05;;;;;;;6.49;95.82;100164.88;5033919;28;20025;-35
2022/12/02 00:38:13;;;;;;;17.45;9.85;;;;;;;6.40;96.03;100174.63;5033844;28;20018;-36
2022/12/02 00:40:39;;;;;;;15.30;9.80;;;;;;;6.36;96.35;100166.22;5032951;28;20072;-36
2022/12/02 00:48:33;;;;;;;18.00;10.05;;;;;;;6.41;96.18;100174.44;5033836;28;20075;-35
2022/12/02 00:50:58;;;;;;;18.08;10.88;;;;;;;6.38;96.48;100177.44;5033501;28;20025;-35
2022/12/02 00:53:24;;;;;;;16.70;10.95;;;;;;;6.38;96.94;100171.34;5032968;28;20044;-35
2022/12/02 00:55:49;;;;;;;19.80;11.73;;;;;;;6.24;97.12;100176.28;5032971;28;20108;-35
2022/12/02 00:58:15;;;;;;;18.20;11.70;;;;;;;6.40;97.59;100172.00;5033078;28;20025;-36
2022/12/02 01:00:40;;;;;;;20.10;11.75;;;;;;;6.55;96.52;100166.84;5033351;28;20087;-36
2022/12/02 01:03:05;;;;;;;18.40;11.00;;;;;;;6.33;96.61;100166.53;5032752;28;20026;-36
2022/12/02 01:05:31;;;;;;;21.70;11.80;;;;;;;6.40;96.97;100166.72;5033258;28;20017;-36
2022/12/02 01:07:56;;;;;;;19.95;11.50;;;;;;;6.30;97.20;100164.22;5033208;28;20021;-36
2022/12/02 01:10:22;;;;;;;20.05;11.68;;;;;;;6.36;97.30;100165.38;5033068;28;20021;-36
2022/12/02 01:12:47;;;;;;;18.33;11.05;;;;;;;6.44;96.90;100168.03;5033214;28;20024;-36
2022/12/02 01:15:13;;;;;;;21.92;12.02;;;;;;;6.33;96.70;100163.88;5033104;28;20324;-36
2022/12/02 01:17:39;;;;;;;22.80;12.02;;;;;;;6.43;97.15;100169.00;5032446;28;20037;-36
2022/12/02 01:20:04;;;;;;;21.80;12.10;;;;;;;6.42;95.86;100162.09;5032100;28;20021;-43
2022/12/02 01:22:30;;;;;;;21.52;11.95;;;;;;;6.38;95.77;100166.88;5032005;28;20021;-36
2022/12/02 01:24:55;;;;;;;20.70;11.55;;;;;;;6.39;95.98;100157.13;5032055;28;20141;-36
2022/12/02 01:27:21;;;;;;;21.05;12.13;;;;;;;6.51;96.64;100158.44;5031933;28;20454;-36
2022/12/02 01:29:47;;;;;;;20.25;12.05;;;;;;;6.33;96.21;100153.31;5031885;28;20017;-36
2022/12/02 01:32:12;;;;;;;23.23;13.50;;;;;;;6.33;96.83;100148.03;5032108;28;20031;-36
2022/12/02 01:34:38;;;;;;;20.35;12.00;;;;;;;6.33;97.74;100155.97;5032147;28;20024;-36
2022/12/02 01:37:04;;;;;;;22.17;12.77;;;;;;;6.38;96.30;100150.19;5032037;28;20017;-36
2022/12/02 01:39:29;;;;;;;23.98;12.70;;;;;;;6.46;96.67;100150.19;5031755;28;20029;-36
2022/12/02 01:41:55;;;;;;;21.17;12.00;;;;;;;6.36;95.67;100153.00;5031825;28;20028;-36
2022/12/02 01:44:20;;;;;;;19.63;12.15;;;;;;;6.30;96.16;100151.00;5031936;28;20137;-36
2022/12/02 01:46:46;;;;;;;23.35;12.13;;;;;;;6.29;97.20;100145.91;5031571;28;20025;-36
2022/12/02 01:49:11;;;;;;;21.85;12.15;;;;;;;6.18;97.27;100155.78;5031897;28;20033;-37
2022/12/02 01:51:37;;;;;;;18.23;11.55;;;;;;;6.32;97.99;100150.84;5031875;28;20021;-37
2022/12/02 01:54:03;;;;;;;21.77;12.40;;;;;;;6.42;98.33;100149.69;5031761;28;20402;-37
2022/12/02 01:56:28;;;;;;;21.88;13.02;;;;;;;6.56;96.90;100145.53;5031605;28;20071;-37
2022/12/02 01:58:54;;;;;;;21.75;12.65;;;;;;;6.51;96.16;100147.03;5031557;28;20025;-36
2022/12/02 02:01:23;;;;;;;23.42;12.70;;;;;;;6.36;96.49;100142.41;5031564;28;20160;-36
2022/12/02 02:03:49;;;;;;;21.27;12.48;;;;;;;6.41;95.92;100147.19;5031297;28;20087;-37
2022/12/02 02:06:14;;;;;;;23.98;12.55;;;;;;;6.50;96.10;100138.28;5031450;28;20079;-37
2022/12/02 02:08:39;;;;;;;21.58;12.18;;;;;;;6.42;96.16;100140.94;5031578;28;20372;-37
2022/12/02 02:11:05;;;;;;;19.85;11.68;;;;;;;6.55;94.87;100135.09;5029927;28;20036;-37
2022/12/02 02:13:30;;;;;;;20.20;11.35;;;;;;;6.46;95.55;100129.03;5031509;28;20026;-37
2022/12/02 02:15:56;;;;;;;19.30;10.65;;;;;;;6.54;95.67;100136.13;5031280;28;20620;-37
2022/12/02 02:18:21;;;;;;;22.25;11.63;;;;;;;6.35;96.24;100127.53;5031249;28;20492;-37
2022/12/02 02:20:47;;;;;;;20.45;11.70;;;;;;;6.34;96.32;100132.97;5031447;28;20104;-37
2022/12/02 02:23:21;;;;;;;21.23;11.80;;;;;;;6.36;96.47;100144.22;5031193;28;20498;-37
2022/12/02 02:25:50;;;;;;;23.73;12.43;;;;;;;6.30;96.27;100134.31;5031042;28;20053;-36
2022/12/02 02:28:16;;;;;;;24.92;12.90;;;;;;;6.17;96.84;100133.00;5031363;28;20036;-37
2022/12/02 02:30:42;;;;;;;27.98;14.23;;;;;;;6.11;96.69;100125.75;5031293;28;20022;-37
2022/12/02 02:33:10;;;;;;;26.17;12.75;;;;;;;6.25;96.56;100130.34;5031018;28;20089;-37
2022/12/02 02:35:38;;;;;;;22.48;12.82;;;;;;;6.20;97.01;100143.22;5030937;28;20060;-37
2022/12/02 02:38:06;;;;;;;23.63;12.50;;;;;;;6.22;97.15;100148.34;5031081;28;20025;-37
2022/12/02 02:40:32;;;;;;;24.17;12.82;;;;;;;6.24;97.34;100134.00;5031167;28;20033;-37
2022/12/02 02:43:00;;;;;;;22.85;13.07;;;;;;;6.38;96.64;100144.91;5030955;28;20040;-37
2022/12/02 02:45:29;;;;;;;22.13;12.60;;;;;;;6.33;96.52;100139.28;5031018;28;20104;-37
2022/12/02 02:47:56;;;;;;;22.10;12.68;;;;;;;6.46;96.79;100140.41;5031023;28;20025;-37
2022/12/02 02:50:22;;;;;;;25.33;12.98;;;;;;;6.49;96.53;100144.53;5030916;28;20038;-37
2022/12/02 02:52:49;;;;;;;25.52;13.27;;;;;;;6.43;96.10;100146.03;5029637;28;20100;-37
2022/12/02 02:55:19;;;;;;;24.48;12.93;;;;;;;6.34;96.30;100149.69;5030782;28;20054;-37
2022/12/02 02:57:45;;;;;;;23.40;12.55;;;;;;;6.31;96.95;100149.19;5030945;28;20426;-37
2022/12/02 03:00:11;;;;;;;23.67;13.20;;;;;;;6.32;96.96;100150.84;5030451;28;20125;-37
2022/12/02 03:02:37;;;;;;;24.23;12.80;;;;;;;6.40;96.88;100158.78;5030872;28;20052;-36
2022/12/02 03:05:05;;;;;;;22.77;12.55;;;;;;;6.53;96.08;100147.69;5030801;28;20471;-35
2022/12/02 03:07:30;;;;;;;22.55;13.23;;;;;;;6.47;96.80;100154.47;5030543;28;20422;-36
2022/12/02 03:09:56;;;;;;;25.02;13.15;;;;;;;6.37;97.82;100152.00;5030699;28;20139;-38
2022/12/02 03:12:22;;;;;;;21.58;12.13;;;;;;;6.47;96.39;100151.81;5030780;28;20097;-36
2022/12/02 03:14:48;;;;;;;22.63;12.82;;;;;;;6.39;96.49;100150.00;5030562;28;20167;-36
2022/12/02 03:17:14;;;;;;;21.08;12.43;;;;;;;6.38;95.85;100145.72;5030742;28;20022;-36
2022/12/02 03:19:41;;;;;;;20.35;11.88;;;;;;;6.33;95.97;100155.13;5030879;28;20076;-36
2022/12/02 03:22:07;;;;;;;20.95;12.25;;;;;;;6.23;97.59;100155.31;5030230;28;20504;-37
2022/12/02 03:24:33;;;;;;;23.42;12.48;;;;;;;6.25;98.02;100156.78;5031162;28;20383;-37
2022/12/02 03:26:59;;;;;;;23.20;12.75;;;;;;;6.32;98.22;100159.63;5034762;28;20060;-37
2022/12/02 03:29:27;;;;;;;22.52;13.38;;;;;;;6.20;97.58;100163.56;5034305;28;20036;-37
2022/12/02 03:31:53;;;;;;;24.27;12.23;;;;;;;6.22;98.51;100159.75;5034497;28;20018;-37
2022/12/02 03:34:18;;;;;;;23.42;13.73;;;;;;;6.30;97.64;100161.56;5034406;28;20017;-37
2022/12/02 03:36:44;;;;;;;25.10;12.98;;;;;;;6.37;97.27;100164.38;5034460;28;20040;-37
2022/12/02 03:39:10;;;;;;;21.55;12.35;;;;;;;6.30;96.72;100155.47;5034030;28;20025;-37
2022/12/02 03:41:36;;;;;;;24.98;12.90;;;;;;;6.33;97.90;100163.88;5034205;28;20029;-36
2022/12/02 03:44:01;;;;;;;23.45;12.30;;;;;;;6.41;97.46;100163.06;5034106;28;20413;-36
2022/12/02 03:46:28;;;;;;;20.67;12.30;;;;;;;6.55;95.75;100151.81;5034034;28;20022;-36
2022/12/02 03:48:55;;;;;;;22.30;12.70;;;;;;;6.42;96.30;100170.84;5034216;28;20477;-36
2022/12/02 03:51:21;;;;;;;22.38;12.35;;;;;;;6.51;95.89;100182.25;5033918;28;20021;-36
2022/12/02 03:53:47;;;;;;;17.75;11.68;;;;;;;6.47;95.77;100175.59;5034025;28;20022;-36
2022/12/02 03:56:12;;;;;;;22.98;12.63;;;;;;;6.58;96.33;100183.22;5033973;28;20044;-36
2022/12/02 03:58:45;;;;;;;22.35;12.15;;;;;;;6.48;96.17;100176.47;5033999;28;20417;-36
2022/12/02 04:01:11;;;;;;;22.15;13.25;;;;;;;6.51;96.22;100182.25;5034190;28;20037;-37
2022/12/02 04:03:37;;;;;;;22.20;13.05;;;;;;;6.56;95.79;100184.38;5033881;28;20033;-36
2022/12/02 04:06:03;;;;;;;43.38;25.85;;;;;;;6.59;95.57;100190.16;5033666;28;20413;-36
2022/12/02 04:08:28;;;;;;;29.73;17.65;;;;;;;6.46;97.16;100185.38;5033620;28;20021;-36
2022/12/02 04:10:55;;;;;;;25.95;15.15;;;;;;;6.39;97.62;100194.13;5033672;28;20036;-36
2022/12/02 04:13:20;;;;;;;33.20;19.00;;;;;;;6.38;96.96;100195.13;5033621;28;20539;-35
2022/12/02 04:15:46;;;;;;;27.38;15.65;;;;;;;6.42;96.10;100186.69;5033798;28;20428;-36
2022/12/02 04:18:11;;;;;;;19.27;11.95;;;;;;;6.38;97.15;100197.78;5033289;28;20536;-35
2022/12/02 04:20:36;;;;;;;22.30;13.13;;;;;;;6.39;96.98;100197.59;5033870;28;20049;-39
2022/12/02 04:23:02;;;;;;;21.52;12.27;;;;;;;6.40;98.04;100191.31;5033233;28;20438;-36
2022/12/02 04:25:28;;;;;;;23.25;12.48;;;;;;;6.37;97.26;100198.75;5030498;28;20056;-36
2022/12/02 04:27:53;;;;;;;21.67;12.40;;;;;;;6.36;97.15;100203.22;5032983;28;20476;-37
2022/12/02 04:30:19;;;;;;;24.42;11.80;;;;;;;6.43;95.50;100198.09;5033074;28;20025;-36
2022/12/02 04:32:44;;;;;;;21.20;11.90;;;;;;;6.37;95.60;100206.69;5032681;28;20017;-37
2022/12/02 04:35:09;;;;;;;45.33;25.77;;;;;;;6.38;95.96;100205.72;5032942;28;20024;-35
2022/12/02 04:37:35;;;;;;;69.03;33.83;;;;;;;6.37;95.53;100211.97;5031116;28;20402;-36
2022/12/02 04:40:00;;;;;;;27.63;14.98;;;;;;;6.18;95.06;100208.66;5032707;28;20028;-35
2022/12/02 04:42:26;;;;;;;19.17;11.63;;;;;;;6.31;95.43;100213.44;5032421;28;20040;-36
2022/12/02 04:44:51;;;;;;;21.02;12.00;;;;;;;6.37;95.33;100215.44;5032903;28;20021;-36
2022/12/02 04:47:16;;;;;;;20.63;11.02;;;;;;;6.36;95.04;100210.31;5033028;28;20101;-36
2022/12/02 04:49:42;;;;;;;20.17;10.82;;;;;;;6.27;96.44;100220.06;5032524;28;20481;-36
2022/12/02 04:52:07;;;;;;;19.58;10.75;;;;;;;6.28;95.54;100213.78;5032361;28;20071;-36
2022/12/02 04:54:33;;;;;;;20.10;11.10;;;;;;;6.17;95.88;100220.22;5032525;28;20033;-37
2022/12/02 04:56:58;;;;;;;20.30;11.30;;;;;;;6.25;95.79;100225.50;5032167;28;20032;-36
2022/12/02 04:59:23;;;;;;;24.70;12.55;;;;;;;6.91;95.72;100222.88;5031914;28;20029;-35
2022/12/02 05:01:49;;;;;;;21.70;12.10;;;;;;;6.86;94.34;100222.53;5032831;28;20470;-36
2022/12/02 05:04:14;;;;;;;19.58;10.98;;;;;;;6.69;93.27;100232.31;5032904;28;20053;-36
2022/12/02 05:06:40;;;;;;;19.55;10.90;;;;;;;6.17;93.29;100236.06;5033088;28;20111;-36
2022/12/02 05:09:05;;;;;;;20.88;11.93;;;;;;;6.62;96.06;100239.25;5032928;28;20048;-37
2022/12/02 05:11:31;;;;;;;25.73;13.75;;;;;;;7.23;94.78;100234.34;5032518;28;20386;-38
2022/12/02 05:13:56;;;;;;;48.53;26.48;;;;;;;6.76;92.53;100240.38;5032873;28;20029;-36
2022/12/02 05:16:22;;;;;;;54.10;28.42;;;;;;;6.42;93.00;100230.81;5032949;28;20029;-35
2022/12/02 05:18:47;;;;;;;25.38;13.32;;;;;;;6.52;94.66;100246.53;5032936;28;20029;-35
2022/12/02 05:21:12;;;;;;;28.83;14.18;;;;;;;7.34;93.16;100251.72;5032668;28;20139;-36
2022/12/02 05:23:38;;;;;;;24.92;12.13;;;;;;;7.03;92.48;100239.22;5032637;28;20034;-36
2022/12/02 05:26:03;;;;;;;21.05;11.07;;;;;;;6.80;91.21;100231.97;5032154;28;20434;-37
2022/12/02 05:28:29;;;;;;;23.50;12.15;;;;;;;6.54;93.33;100242.72;5032579;28;20104;-36
2022/12/02 05:30:54;;;;;;;30.52;13.05;;;;;;;6.76;95.25;100235.09;5032389;28;20071;-37
2022/12/02 05:33:20;;;;;;;25.10;12.10;;;;;;;7.09;94.98;100238.53;5031805;28;20092;-36
2022/12/02 05:35:45;;;;;;;26.17;12.70;;;;;;;6.95;93.24;100240.06;5029923;28;20048;-36
2022/12/02 05:38:10;;;;;;;24.63;12.43;;;;;;;6.80;93.13;100239.91;5031130;28;20047;-36
2022/12/02 05:40:36;;;;;;;26.48;12.55;;;;;;;6.67;95.32;100249.34;5032300;28;20120;-37
2022/12/02 05:43:14;;;;;;;27.23;13.30;;;;;;;6.58;95.88;100248.50;5032257;28;20026;-36
2022/12/02 05:45:39;;;;;;;24.23;12.43;;;;;;;6.66;95.22;100245.84;5030862;28;20108;-36
2022/12/02 05:48:09;;;;;;;23.85;12.35;;;;;;;6.57;95.80;100241.56;5031477;28;20462;-35
2022/12/02 05:50:35;;;;;;;26.55;12.93;;;;;;;6.54;95.68;100244.53;5031134;28;20032;-36
2022/12/02 05:53:00;;;;;;;24.13;12.48;;;;;;;6.67;96.11;100251.97;5029601;28;20018;-38
2022/12/02 05:55:26;;;;;;;23.17;11.88;;;;;;;6.74;96.05;100245.00;5030191;28;20026;-38
2022/12/02 05:57:58;;;;;;;24.42;12.85;;;;;;;6.84;95.66;100245.69;5029835;28;20429;-39
2022/12/02 06:00:23;;;;;;;22.60;11.82;;;;;;;6.92;94.27;100245.66;5030510;28;20050;-37
2022/12/02 06:02:55;;;;;;;28.60;14.35;;;;;;;6.92;94.11;100252.78;5030614;28;20084;-37
2022/12/02 06:05:30;;;;;;;145.60;72.80;;;;;;;6.86;92.82;100249.00;5030799;28;20052;-36
2022/12/02 06:08:12;;;;;;;29.60;14.77;;;;;;;6.63;93.10;100256.78;5030546;28;20089;-36
2022/12/02 06:10:37;;;;;;;20.52;11.13;;;;;;;6.49;93.98;100258.22;5030972;28;20029;-36
2022/12/02 06:13:23;;;;;;;19.10;10.35;;;;;;;6.74;92.63;100261.72;5030932;28;20017;-36
2022/12/02 06:15:50;;;;;;;33.30;16.98;;;;;;;6.56;93.00;100261.06;5028169;28;20025;-37
2022/12/02 06:18:18;;;;;;;70.07;35.28;;;;;;;6.57;93.37;100268.03;5032023;28;20100;-36
2022/12/02 06:20:45;;;;;;;65.32;31.77;;;;;;;6.64;93.28;100269.00;5031439;28;20437;-36
2022/12/02 06:23:15;;;;;;;29.42;15.30;;;;;;;6.55;94.11;100264.69;5030398;28;20014;-36
2022/12/02 06:25:41;;;;;;;23.67;11.38;;;;;;;6.57;94.02;100268.03;5029371;28;20503;-36
2022/12/02 06:28:17;;;;;;;23.35;11.70;;;;;;;6.67;94.45;100267.84;5029574;28;20079;-36
2022/12/02 06:30:42;;;;;;;24.23;12.93;;;;;;;6.61;94.02;100270.16;5029487;28;20131;-36
2022/12/02 06:33:21;;;;;;;22.25;11.73;;;;;;;6.80;93.11;100269.00;5029540;28;20112;-36
2022/12/02 06:35:46;;;;;;;23.40;12.27;;;;;;;6.75;91.82;100271.31;5029554;28;20444;-37
2022/12/02 06:38:30;;;;;;;21.42;11.90;;;;;;;6.81;92.54;100273.28;5029215;28;20105;-37
2022/12/02 06:40:59;;;;;;;20.98;11.32;;;;;;;6.84;92.11;100278.25;5029386;28;20052;-36
2022/12/02 06:43:29;;;;;;;24.17;13.07;;;;;;;6.95;92.66;100273.59;5029090;28;20021;-36
2022/12/02 06:45:54;;;;;;;25.13;13.00;;;;;;;7.93;89.93;100280.47;5029345;28;20033;-36
2022/12/02 06:48:24;;;;;;;19.88;10.93;;;;;;;7.75;87.10;100283.34;5029242;28;20033;-36
2022/12/02 06:50:50;;;;;;;21.58;11.48;;;;;;;7.31;86.49;100289.97;5029121;28;20161;-37
2022/12/02 06:53:33;;;;;;;21.27;12.32;;;;;;;7.26;88.53;100288.81;5029314;28;20108;-37
2022/12/02 06:56:00;;;;;;;22.58;12.27;;;;;;;7.67;90.13;100288.69;5029440;28;20033;-37
2022/12/02 06:58:26;;;;;;;22.38;12.90;;;;;;;7.96;89.22;100288.09;5029417;28;20033;-36
2022/12/02 07:00:52;;;;;;;26.17;13.45;;;;;;;7.51;88.42;100290.38;5028428;28;20087;-36
2022/12/02 07:03:23;;;;;;;24.08;12.55;;;;;;;7.39;89.06;100291.75;5029211;28;20026;-36
2022/12/02 07:05:53;;;;;;;23.20;12.23;;;;;;;7.21;89.91;100297.25;5029241;28;20053;-36
2022/12/02 07:08:18;;;;;;;23.23;12.02;;;;;;;7.09;89.68;100288.00;5029289;28;20025;-37
2022/12/02 07:10:43;;;;;;;61.42;32.65;;;;;;;7.08;89.98;100305.69;5029593;28;20033;-36
2022/12/02 07:13:17;;;;;;;77.10;41.03;;;;;;;7.08;90.19;100297.75;5029543;28;20029;-37
2022/12/02 07:15:43;;;;;;;37.38;20.33;;;;;;;7.21;90.82;100294.59;5030800;28;20079;-37
2022/12/02 07:18:13;;;;;;;30.50;16.45;;;;;;;7.54;90.50;100294.50;5030674;28;20025;-36
2022/12/02 07:20:41;;;;;;;27.38;14.77;;;;;;;8.19;86.90;100304.84;5030788;28;20044;-36
2022/12/02 07:23:13;;;;;;;25.25;13.68;;;;;;;7.90;87.50;100309.94;5030044;28;20033;-37
2022/12/02 07:25:42;;;;;;;27.67;14.57;;;;;;;7.67;85.08;100308.03;5030793;28;20429;-37
2022/12/02 07:28:33;;;;;;;27.73;13.85;;;;;;;7.52;90.36;100310.59;5030771;28;20064;-36
2022/12/02 07:31:18;;;;;;;26.77;14.13;;;;;;;8.42;88.44;100306.75;5027195;28;20034;-35
2022/12/02 07:33:44;;;;;;;26.95;13.77;;;;;;;7.99;86.95;100307.09;5030004;28;20087;-36
2022/12/02 07:36:09;;;;;;;30.45;14.23;;;;;;;7.73;86.64;100315.34;5030252;28;20029;-37
2022/12/02 07:38:35;;;;;;;26.05;12.98;;;;;;;7.76;89.15;100304.38;5030421;28;20086;-35
2022/12/02 07:41:01;;;;;;;23.50;13.00;;;;;;;8.56;85.99;100305.97;5030392;28;20048;-35
2022/12/02 07:43:26;;;;;;;21.90;12.38;;;;;;;8.14;85.20;100298.41;5030032;28;20508;-36
2022/12/02 07:45:51;;;;;;;24.92;11.73;;;;;;;7.86;83.68;100304.16;5028672;28;20464;-36
2022/12/02 07:48:17;;;;;;;23.08;12.43;;;;;;;7.82;86.42;100295.75;5030099;28;20026;-36
2022/12/02 07:50:42;;;;;;;23.20;12.35;;;;;;;8.54;85.28;100307.97;5030220;28;20021;-36
2022/12/02 07:53:08;;;;;;;20.33;10.85;;;;;;;8.82;83.20;100312.75;5029967;28;20095;-37
2022/12/02 07:55:33;;;;;;;20.23;11.15;;;;;;;8.63;80.63;100305.28;5030184;28;20034;-36
2022/12/02 07:57:59;;;;;;;18.08;9.95;;;;;;;8.28;82.63;100303.00;5029905;28;20035;-36
2022/12/02 08:00:24;;;;;;;18.55;9.90;;;;;;;8.68;84.36;100311.72;5030084;28;20108;-39
2022/12/02 08:02:50;;;;;;;17.02;9.73;;;;;;;9.20;81.97;100315.41;5029634;28;20052;-37
2022/12/02 08:05:16;;;;;;;19.50;9.75;;;;;;;8.75;80.58;100319.78;5029807;28;20374;-36
2022/12/02 08:07:41;;;;;;;17.00;9.80;;;;;;;8.61;81.71;100314.22;5030088;28;20474;-37
2022/12/02 08:10:07;;;;;;;19.10;10.93;;;;;;;8.74;82.96;100318.97;5029795;28;20029;-36
2022/12/02 08:12:33;;;;;;;16.40;9.50;;;;;;;8.83;81.97;100311.75;5033394;28;20043;-36
2022/12/02 08:14:58;;;;;;;18.65;9.77;;;;;;;8.98;81.34;100317.91;5033216;28;20099;-36
2022/12/02 08:17:24;;;;;;;16.17;8.82;;;;;;;8.93;81.09;100322.09;5033249;28;20108;-37
2022/12/02 08:19:49;;;;;;;15.02;9.00;;;;;;;9.08;80.26;100322.16;5033162;28;20079;-36
2022/12/02 08:22:14;;;;;;;16.77;9.77;;;;;;;9.22;80.76;100309.94;5033089;28;20034;-37
2022/12/02 08:24:40;;;;;;;17.98;9.50;;;;;;;9.37;79.83;100316.91;5033281;28;20054;-37
2022/12/02 08:27:05;;;;;;;14.07;8.30;;;;;;;9.65;77.48;100315.44;5032814;28;20053;-38
2022/12/02 08:29:31;;;;;;;18.40;9.90;;;;;;;9.52;79.17;100316.94;5033007;28;20541;-43
2022/12/02 08:31:56;;;;;;;13.95;8.90;;;;;;;9.67;78.57;100314.28;5033082;28;20029;-44
2022/12/02 08:34:22;;;;;;;14.23;8.45;;;;;;;9.77;78.35;100311.34;5033158;28;20029;-45
2022/12/02 08:36:47;;;;;;;15.52;8.70;;;;;;;10.09;77.07;100318.09;5033089;28;20029;-35
2022/12/02 08:39:13;;;;;;;15.60;8.25;;;;;;;10.20;77.04;100321.25;5033136;28;20021;-36
2022/12/02 08:41:38;;;;;;;17.10;9.02;;;;;;;10.47;75.17;100323.25;5032426;28;20025;-37
2022/12/02 08:44:04;;;;;;;16.77;8.88;;;;;;;10.53;73.88;100319.84;5033012;28;20033;-36
2022/12/02 08:46:30;;;;;;;17.88;10.02;;;;;;;10.45;75.41;100327.94;5032902;28;20025;-36
2022/12/02 08:48:56;;;;;;;15.57;9.05;;;;;;;10.54;74.35;100336.63;5032951;28;20025;-36
2022/12/02 08:51:22;;;;;;;17.80;9.23;;;;;;;10.68;74.05;100334.91;5033101;28;20030;-34
2022/12/02 08:53:47;;;;;;;14.98;8.43;;;;;;;10.36;74.46;100335.19;5032450;28;20025;-37
2022/12/02 08:56:13;;;;;;;16.45;8.63;;;;;;;10.71;73.80;100337.19;5032512;28;20055;-37
2022/12/02 08:58:38;;;;;;;14.38;8.82;;;;;;;10.50;73.13;100336.16;5032605;28;20021;-37
2022/12/02 09:01:04;;;;;;;19.50;10.95;;;;;;;10.79;72.57;100337.06;5032720;28;20025;-38
2022/12/02 09:03:30;;;;;;;14.20;8.77;;;;;;;10.49;72.44;100331.88;5032524;28;20033;-37
2022/12/02 09:05:55;;;;;;;14.73;9.18;;;;;;;10.89;71.09;100320.75;5032426;28;20033;-37
2022/12/02 09:08:21;;;;;;;17.67;9.50;;;;;;;10.84;70.77;100332.00;5032504;28;20033;-37
2022/12/02 09:10:46;;;;;;;17.58;9.00;;;;;;;10.46;73.36;100324.25;5032016;28;20398;-37
2022/12/02 09:13:12;;;;;;;14.10;8.40;;;;;;;10.38;73.75;100319.06;5032418;28;20047;-36
2022/12/02 09:15:37;;;;;;;15.75;8.57;;;;;;;10.49;73.15;100323.88;5032154;28;20034;-36
2022/12/02 09:18:02;;;;;;;14.02;8.10;;;;;;;11.01;68.35;100323.75;5032188;28;20029;-36
2022/12/02 09:20:28;;;;;;;12.65;7.55;;;;;;;11.18;68.80;100316.31;5032027;28;20425;-35
2022/12/02 09:22:55;;;;;;;15.65;8.10;;;;;;;10.95;70.38;100325.34;5030919;28;20025;-37
2022/12/02 09:25:20;;;;;;;13.38;7.65;;;;;;;11.35;68.82;100318.47;5031541;28;20136;-37
2022/12/02 09:27:46;;;;;;;14.77;7.38;;;;;;;11.41;70.65;100321.41;5032045;28;20522;-44
2022/12/02 09:30:11;;;;;;;11.35;7.68;;;;;;;11.55;68.78;100309.78;5032024;28;20033;-43
2022/12/02 09:32:37;;;;;;;12.15;7.35;;;;;;;11.69;68.50;100314.19;5031899;28;20405;-43
2022/12/02 09:35:03;;;;;;;13.35;8.63;;;;;;;11.47;68.63;100315.28;5031967;28;20083;-44
2022/12/02 09:37:28;;;;;;;16.58;8.48;;;;;;;11.32;67.99;100310.88;5031864;28;20025;-44
2022/12/02 09:39:53;;;;;;;13.30;7.55;;;;;;;11.36;66.97;100316.63;5032016;28;20033;-43
2022/12/02 09:42:19;;;;;;;15.13;6.28;;;;;;;11.51;64.47;100316.53;5031762;28;20832;-45
2022/12/02 09:44:46;;;;;;;10.07;6.10;;;;;;;11.69;65.17;100311.53;5031754;28;20397;-44
2022/12/02 09:47:12;;;;;;;9.95;6.35;;;;;;;11.72;65.29;100307.63;5031576;28;20051;-44
2022/12/02 09:49:39;;;;;;;13.52;7.70;;;;;;;11.62;67.58;100305.31;5031774;28;20049;-44
2022/12/02 09:52:12;;;;;;;14.20;6.13;;;;;;;11.73;65.39;100303.97;5031288;28;20035;-44
2022/12/02 09:54:37;;;;;;;8.82;5.25;;;;;;;11.91;62.52;100306.94;5031129;28;20033;-45
2022/12/02 09:57:10;;;;;;;10.50;5.72;;;;;;;11.87;64.17;100310.16;5030967;28;20033;-45
2022/12/02 09:59:35;;;;;;;9.18;5.63;;;;;;;11.80;64.98;100301.31;5031384;28;20029;-44
2022/12/02 10:02:00;;;;;;;10.07;5.57;;;;;;;11.64;65.51;100300.63;5031308;28;20018;-44
2022/12/02 10:04:26;;;;;;;12.07;7.03;;;;;;;11.92;65.73;100305.91;5031222;28;20021;-43
2022/12/02 10:06:51;;;;;;;9.40;5.72;;;;;;;11.98;63.49;100292.81;5031375;28;20497;-43
2022/12/02 10:09:25;;;;;;;9.30;5.75;;;;;;;11.79;63.98;100297.81;5031030;28;20060;-43
2022/12/02 10:11:51;;;;;;;10.32;5.50;;;;;;;12.29;63.32;100297.63;5031043;28;20029;-45
2022/12/02 10:14:16;;;;;;;10.20;5.57;;;;;;;12.11;63.27;100288.34;5031252;28;20440;-43
2022/12/02 10:16:42;;;;;;;10.43;5.75;;;;;;;11.93;65.52;100291.56;5031078;28;20087;-43
2022/12/02 10:19:16;;;;;;;9.63;5.90;;;;;;;12.28;63.74;100299.50;5031105;28;20064;-43
2022/12/02 10:21:42;;;;;;;10.10;5.65;;;;;;;12.45;62.29;100294.59;5031307;28;20029;-46
2022/12/02 10:24:08;;;;;;;11.73;6.03;;;;;;;12.12;63.56;100299.84;5030419;28;20052;-44
2022/12/02 10:26:49;;;;;;;10.82;6.18;;;;;;;12.21;62.19;100293.31;5031072;28;20037;-45
2022/12/02 10:29:24;;;;;;;;;;;;;;;12.07;64.04;100289.78;5031331;28;20029;-43
2022/12/02 10:31:53;;;;;;;10.00;5.45;;;;;;;12.34;63.62;100284.53;5030980;28;19909;-44
2022/12/02 10:34:19;;;;;;;;;;;;;;;12.61;63.66;100281.91;5029996;28;20029;-43
2022/12/02 10:36:45;;;;;;;11.27;5.40;;;;;;;12.75;64.24;100285.41;5030555;28;19915;-45
2022/12/02 10:39:29;;;;;;;8.52;5.72;;;;;;;12.89;65.03;100285.19;5030132;28;20029;-45
2022/12/02 10:42:04;;;;;;;10.13;5.63;;;;;;;12.71;62.12;100276.97;5030190;28;20036;-44
2022/12/02 10:44:44;;;;;;;11.60;6.15;;;;;;;12.39;62.62;100282.03;5030401;28;20541;-37
2022/12/02 10:47:23;;;;;;;11.10;5.68;;;;;;;12.17;62.71;100293.91;5030458;28;20086;-36
2022/12/02 10:49:56;;;;;;;8.32;5.55;;;;;;;12.26;61.11;100288.19;5030545;28;20120;-36
2022/12/02 10:52:27;;;;;;;8.55;5.35;;;;;;;12.11;62.47;100283.00;5030605;28;20501;-36
2022/12/02 10:54:55;;;;;;;16.67;5.30;;;;;;;12.39;60.71;100275.91;5030130;28;20163;-37
2022/12/02 10:57:26;;;;;;;8.13;5.53;;;;;;;12.59;60.94;100281.28;5030371;28;20060;-37
2022/12/02 10:59:54;;;;;;;10.20;5.65;;;;;;;11.89;64.08;100278.78;5030715;28;20132;-37
2022/12/02 11:02:45;;;;;;;8.02;5.18;;;;;;;11.42;65.93;100277.72;5030434;28;20022;-37
2022/12/02 11:05:34;;;;;;;12.20;6.80;;;;;;;11.63;64.76;100285.66;5030195;28;20069;-37
2022/12/02 11:08:03;;;;;;;11.20;6.88;;;;;;;12.15;62.06;100277.25;5029955;28;20108;-37
2022/12/02 11:10:37;;;;;;;13.43;7.28;;;;;;;12.11;63.64;100271.53;5029990;28;20025;-36
2022/12/02 11:13:03;;;;;;;8.25;5.47;;;;;;;12.41;62.09;100274.66;5030200;28;20087;-37
2022/12/02 11:15:51;;;;;;;7.93;4.97;;;;;;;12.72;60.09;100273.28;5030093;28;20135;-37
2022/12/02 11:18:29;;;;;;;9.43;5.05;;;;;;;12.89;59.85;100276.38;5030095;28;20025;-37
2022/12/02 11:21:00;;;;;;;8.75;5.72;;;;;;;12.42;61.45;100278.16;5029865;28;20022;-37
2022/12/02 11:23:27;;;;;;;8.75;5.68;;;;;;;12.54;61.76;100273.88;5030272;28;20034;-37
2022/12/02 11:26:07;;;;;;;7.88;4.38;;;;;;;12.09;61.37;100274.38;5030198;28;20064;-37